createdAt,value
2018-04-26T00:00:35.980Z,46.91
2018-04-26T00:01:36.378Z,46.82
2018-04-26T00:02:36.903Z,46.74
2018-04-26T00:03:37.327Z,46.61
2018-04-26T00:05:38.271Z,46.21
2018-04-26T00:06:38.752Z,46.06
2018-04-26T00:08:39.896Z,45.71
2018-04-26T00:09:40.168Z,45.60
2018-04-26T00:10:40.646Z,45.52
2018-04-26T00:11:41.315Z,45.39
2018-04-26T00:13:42.265Z,45.26
2018-04-26T00:15:43.013Z,45.28
2018-04-26T00:16:43.494Z,45.34
2018-04-26T00:18:44.436Z,45.61
2018-04-26T00:19:45.313Z,45.74
2018-04-26T00:20:45.384Z,45.97
2018-04-26T00:21:45.939Z,46.14
2018-04-26T00:22:46.339Z,46.35
2018-04-26T00:23:47.283Z,46.55
2018-04-26T00:24:47.330Z,46.78
2018-04-26T00:25:47.756Z,47.01
2018-04-26T00:26:48.436Z,47.21
2018-04-26T00:27:52.013Z,47.42
2018-04-26T00:28:49.381Z,47.67
2018-04-26T00:29:49.717Z,47.88
2018-04-26T00:30:50.608Z,48.09
2018-04-26T00:31:51.311Z,48.27
2018-04-26T00:32:51.066Z,48.49
2018-04-26T00:33:51.615Z,48.67
2018-04-26T00:36:53.030Z,49.39
2018-04-26T00:37:53.424Z,49.59
2018-04-26T00:38:53.897Z,49.81
2018-04-26T00:39:54.371Z,50.01
2018-04-26T00:41:55.309Z,50.35
2018-04-26T00:43:56.250Z,50.53
2018-04-26T00:44:56.723Z,50.53
2018-04-26T00:45:57.191Z,50.53
2018-04-26T00:46:57.663Z,50.53
2018-04-26T00:47:58.542Z,50.46
2018-04-26T00:48:58.604Z,50.33
2018-04-26T00:49:59.282Z,50.15
2018-04-26T00:50:59.548Z,49.98
2018-04-26T00:52:00.015Z,49.79
2018-04-26T00:53:00.538Z,49.63
2018-04-26T00:54:01.645Z,49.50
2018-04-26T00:55:01.437Z,49.33
2018-04-26T00:56:01.905Z,49.14
2018-04-26T00:57:02.975Z,48.95
2018-04-26T00:58:02.840Z,48.79
2018-04-26T00:59:03.312Z,48.63
2018-04-26T01:00:03.782Z,48.43
2018-04-26T01:02:04.935Z,48.05
2018-04-26T01:03:05.854Z,47.86
2018-04-26T01:04:05.689Z,47.64
2018-04-26T01:05:06.145Z,47.45
2018-04-26T01:07:07.089Z,47.09
2018-04-26T01:09:08.033Z,46.71
2018-04-26T01:11:08.973Z,46.35
2018-04-26T01:12:09.647Z,46.22
2018-04-26T01:13:09.969Z,46.07
2018-04-26T01:14:10.393Z,45.92
2018-04-26T01:15:11.067Z,45.84
2018-04-26T01:16:11.341Z,45.67
2018-04-26T01:19:12.764Z,45.37
2018-04-26T01:20:13.237Z,45.23
2018-04-26T01:21:13.906Z,45.12
2018-04-26T01:22:14.242Z,45.03
2018-04-26T01:24:15.127Z,44.78
2018-04-26T01:25:15.603Z,44.70
2018-04-26T01:26:16.284Z,44.69
2018-04-26T01:27:16.752Z,44.65
2018-04-26T01:28:17.025Z,44.60
2018-04-26T01:29:17.774Z,44.63
2018-04-26T01:30:17.977Z,44.67
2018-04-26T01:31:18.447Z,44.69
2018-04-26T01:32:19.128Z,44.74
2018-04-26T01:33:19.599Z,44.84
2018-04-26T01:34:20.485Z,45.00
2018-04-26T01:35:20.553Z,45.16
2018-04-26T01:36:20.822Z,45.35
2018-04-26T01:37:21.294Z,45.58
2018-04-26T01:38:22.022Z,45.78
2018-04-26T01:39:22.322Z,46.06
2018-04-26T01:40:22.712Z,46.32
2018-04-26T01:41:23.188Z,46.61
2018-04-26T01:43:24.136Z,47.13
2018-04-26T01:44:24.608Z,47.36
2018-04-26T01:45:25.081Z,47.55
2018-04-26T01:48:26.503Z,48.14
2018-04-26T01:49:28.372Z,48.35
2018-04-26T01:50:27.648Z,48.58
2018-04-26T01:51:27.923Z,48.80
2018-04-26T01:52:28.594Z,49.02
2018-04-26T01:53:28.862Z,49.24
2018-04-26T01:54:29.533Z,49.39
2018-04-26T01:55:30.409Z,49.54
2018-04-26T01:56:30.273Z,49.68
2018-04-26T01:57:30.749Z,49.80
2018-04-26T01:58:31.216Z,49.86
2018-04-26T01:59:31.888Z,49.88
2018-04-26T02:00:32.357Z,49.86
2018-04-26T02:01:32.630Z,49.81
2018-04-26T02:03:33.616Z,49.60
2018-04-26T02:04:34.036Z,49.47
2018-04-26T02:07:35.523Z,48.98
2018-04-26T02:09:36.389Z,48.58
2018-04-26T02:10:36.861Z,48.42
2018-04-26T02:12:37.800Z,48.03
2018-04-26T02:13:38.273Z,47.87
2018-04-26T02:14:38.753Z,47.69
2018-04-26T02:15:39.216Z,47.49
2018-04-26T02:18:40.628Z,47.01
2018-04-26T02:19:41.304Z,46.87
2018-04-26T02:20:41.772Z,46.73
2018-04-26T02:21:42.449Z,46.60
2018-04-26T02:22:42.516Z,46.49
2018-04-26T02:23:43.042Z,46.36
2018-04-26T02:24:43.660Z,46.28
2018-04-26T02:25:43.931Z,46.08
2018-04-26T02:26:44.811Z,45.92
2018-04-26T02:28:45.398Z,45.74
2018-04-26T02:29:45.823Z,45.60
2018-04-26T02:30:46.498Z,45.50
2018-04-26T02:31:46.972Z,45.37
2018-04-26T02:32:47.241Z,45.26
2018-04-26T02:34:48.188Z,45.02
2018-04-26T02:35:48.663Z,44.94
2018-04-26T02:36:49.133Z,44.85
2018-04-26T02:37:49.609Z,44.80
2018-04-26T02:40:51.093Z,44.63
2018-04-26T02:41:51.506Z,44.57
2018-04-26T02:42:52.178Z,44.50
2018-04-26T02:44:52.920Z,44.35
2018-04-26T02:45:53.398Z,44.32
2018-04-26T02:47:54.349Z,44.27
2018-04-26T02:48:55.075Z,44.26
2018-04-26T02:49:55.700Z,44.29
2018-04-26T02:50:55.777Z,44.34
2018-04-26T02:51:56.528Z,44.41
2018-04-26T02:52:56.722Z,44.52
2018-04-26T02:53:57.191Z,44.66
2018-04-26T02:54:57.869Z,44.87
2018-04-26T02:55:58.148Z,45.07
2018-04-26T02:56:58.823Z,45.29
2018-04-26T02:57:59.093Z,45.50
2018-04-26T02:58:59.562Z,45.72
2018-04-26T03:00:00.044Z,45.98
2018-04-26T03:01:00.510Z,46.27
2018-04-26T03:02:01.390Z,46.50
2018-04-26T03:03:01.469Z,46.75
2018-04-26T03:05:02.474Z,47.23
2018-04-26T03:07:03.556Z,47.71
2018-04-26T03:08:03.896Z,47.98
2018-04-26T03:09:04.289Z,48.24
2018-04-26T03:10:04.764Z,48.50
2018-04-26T03:12:05.705Z,49.02
2018-04-26T03:13:06.178Z,49.19
2018-04-26T03:14:06.654Z,49.39
2018-04-26T03:16:07.600Z,49.69
2018-04-26T03:19:09.207Z,49.86
2018-04-26T03:20:09.481Z,49.84
2018-04-26T03:21:09.943Z,49.79
2018-04-26T03:22:10.817Z,49.71
2018-04-26T03:23:10.883Z,49.62
2018-04-26T03:24:11.356Z,49.49
2018-04-26T03:25:11.829Z,49.33
2018-04-26T03:26:12.295Z,49.16
2018-04-26T03:27:12.770Z,48.95
2018-04-26T03:28:13.447Z,48.74
2018-04-26T03:29:13.920Z,48.53
2018-04-26T03:30:14.183Z,48.38
2018-04-26T03:31:14.893Z,48.24
2018-04-26T03:32:15.121Z,48.07
2018-04-26T03:33:15.793Z,47.93
2018-04-26T03:35:16.534Z,47.63
2018-04-26T03:36:17.284Z,47.46
2018-04-26T03:37:17.697Z,47.29
2018-04-26T03:39:18.454Z,47.01
2018-04-26T03:40:18.891Z,46.91
2018-04-26T03:42:19.903Z,46.67
2018-04-26T03:43:20.304Z,46.57
2018-04-26T03:45:21.247Z,46.35
2018-04-26T03:46:21.721Z,46.23
2018-04-26T03:47:22.194Z,46.12
2018-04-26T03:48:22.668Z,46.03
2018-04-26T03:49:23.138Z,45.92
2018-04-26T03:50:23.610Z,45.81
2018-04-26T03:51:24.090Z,45.69
2018-04-26T03:52:24.835Z,45.62
2018-04-26T03:55:26.047Z,45.29
2018-04-26T03:56:26.447Z,45.20
2018-04-26T03:57:26.920Z,45.12
2018-04-26T03:58:27.600Z,45.05
2018-04-26T03:59:28.069Z,44.94
2018-04-26T04:00:28.342Z,44.86
2018-04-26T04:01:28.820Z,44.78
2018-04-26T04:02:29.287Z,44.70
2018-04-26T04:03:29.969Z,44.64
2018-04-26T04:04:30.490Z,44.63
2018-04-26T04:05:30.985Z,44.57
2018-04-26T04:06:31.185Z,44.52
2018-04-26T04:07:31.660Z,44.40
2018-04-26T04:08:32.131Z,44.31
2018-04-26T04:10:33.080Z,44.19
2018-04-26T04:11:33.555Z,44.18
2018-04-26T04:12:34.029Z,44.12
2018-04-26T04:13:34.504Z,44.08
2018-04-26T04:14:34.981Z,44.05
2018-04-26T04:15:35.452Z,44.06
2018-04-26T04:16:36.132Z,44.11
2018-04-26T04:17:36.401Z,44.18
2018-04-26T04:18:36.875Z,44.29
2018-04-26T04:19:37.399Z,44.45
2018-04-26T04:20:37.828Z,44.59
2018-04-26T04:21:38.302Z,44.82
2018-04-26T04:22:38.977Z,45.02
2018-04-26T04:23:39.249Z,45.22
2018-04-26T04:24:39.723Z,45.46
2018-04-26T04:29:42.391Z,46.90
2018-04-26T04:30:42.558Z,47.17
2018-04-26T04:31:43.031Z,47.47
2018-04-26T04:32:44.995Z,47.78
2018-04-26T04:33:43.979Z,48.09
2018-04-26T04:34:44.903Z,48.41
2018-04-26T04:35:44.917Z,48.65
2018-04-26T04:36:45.391Z,48.88
2018-04-26T04:37:45.859Z,49.07
2018-04-26T04:39:46.853Z,49.32
2018-04-26T04:40:47.271Z,49.39
2018-04-26T04:41:47.943Z,49.44
2018-04-26T04:42:48.212Z,49.41
2018-04-26T04:43:48.889Z,49.31
2018-04-26T04:44:49.356Z,49.21
2018-04-26T04:45:49.632Z,49.12
2018-04-26T04:46:50.097Z,48.99
2018-04-26T04:47:50.620Z,48.86
2018-04-26T04:48:51.046Z,48.75
2018-04-26T04:49:51.555Z,48.62
2018-04-26T04:50:52.180Z,48.48
2018-04-26T04:51:52.446Z,48.34
2018-04-26T04:53:53.388Z,48.06
2018-04-26T04:54:54.468Z,47.90
2018-04-26T04:55:54.328Z,47.76
2018-04-26T04:57:55.269Z,47.43
2018-04-26T04:58:55.738Z,47.30
2018-04-26T05:00:56.680Z,47.01
2018-04-26T05:01:57.419Z,46.87
2018-04-26T05:02:58.827Z,46.79
2018-04-26T05:03:58.092Z,46.62
2018-04-26T05:04:58.616Z,46.49
2018-04-26T05:05:59.037Z,46.38
2018-04-26T05:06:59.709Z,46.29
2018-04-26T05:07:59.980Z,46.20
2018-04-26T05:09:00.654Z,46.12
2018-04-26T05:11:01.396Z,45.96
2018-04-26T05:12:01.865Z,45.89
2018-04-26T05:14:02.811Z,45.70
2018-04-26T05:15:03.278Z,45.63
2018-04-26T05:16:03.956Z,45.51
2018-04-26T05:17:04.432Z,45.45
2018-04-26T05:18:04.717Z,45.39
2018-04-26T05:19:05.245Z,45.29
2018-04-26T05:20:05.640Z,45.22
2018-04-26T05:21:06.524Z,45.14
2018-04-26T05:22:06.586Z,45.05
2018-04-26T05:23:07.058Z,44.97
2018-04-26T05:24:07.536Z,44.92
2018-04-26T05:25:08.208Z,44.84
2018-04-26T05:26:08.525Z,44.78
2018-04-26T05:27:09.423Z,44.70
2018-04-26T05:28:09.629Z,44.66
2018-04-26T05:30:11.787Z,44.55
2018-04-26T05:31:10.838Z,44.55
2018-04-26T05:32:11.316Z,44.50
2018-04-26T05:33:12.067Z,44.46
2018-04-26T05:34:12.468Z,44.41
2018-04-26T05:35:41.292Z,44.29
2018-04-26T05:36:41.715Z,44.23
2018-04-26T05:37:42.193Z,44.15
2018-04-26T05:38:42.662Z,44.11
2018-04-26T05:39:43.136Z,44.07
2018-04-26T05:40:43.608Z,43.99
2018-04-26T05:41:44.086Z,43.95
2018-04-26T05:42:44.557Z,43.89
2018-04-26T05:43:45.029Z,43.84
2018-04-26T05:44:45.502Z,43.82
2018-04-26T05:45:46.027Z,43.80
2018-04-26T05:46:46.450Z,43.80
2018-04-26T05:47:46.923Z,43.75
2018-04-26T05:48:47.399Z,43.75
2018-04-26T05:49:47.872Z,43.68
2018-04-26T05:50:48.399Z,43.64
2018-04-26T05:51:48.818Z,43.59
2018-04-26T05:52:49.292Z,43.59
2018-04-26T05:53:49.767Z,43.59
2018-04-26T05:54:50.242Z,43.60
2018-04-26T05:55:50.817Z,43.58
2018-04-26T05:56:51.189Z,43.58
2018-04-26T05:57:51.665Z,43.53
2018-04-26T05:58:52.137Z,43.56
2018-04-26T05:59:52.611Z,43.53
2018-04-26T06:00:53.085Z,43.48
2018-04-26T06:01:53.561Z,43.44
2018-04-26T06:02:54.073Z,43.46
2018-04-26T06:03:54.548Z,43.47
2018-04-26T06:04:54.982Z,43.43
2018-04-26T06:05:55.458Z,43.42
2018-04-26T06:06:55.931Z,43.44
2018-04-26T06:07:56.405Z,43.47
2018-04-26T06:08:56.878Z,43.44
2018-04-26T06:09:57.694Z,43.44
2018-04-26T06:10:57.881Z,43.43
2018-04-26T06:11:58.306Z,43.42
2018-04-26T06:12:58.777Z,43.42
2018-04-26T06:14:00.111Z,43.37
2018-04-26T06:14:59.783Z,43.39
2018-04-26T06:16:00.258Z,43.34
2018-04-26T06:17:00.692Z,43.34
2018-04-26T06:18:01.150Z,43.36
2018-04-26T06:19:01.625Z,43.43
2018-04-26T06:20:02.098Z,43.50
2018-04-26T06:21:02.572Z,43.66
2018-04-26T06:22:03.047Z,43.85
2018-04-26T06:23:03.520Z,44.06
2018-04-26T06:24:03.999Z,44.29
2018-04-26T06:25:04.471Z,44.52
2018-04-26T06:26:04.948Z,44.76
2018-04-26T06:27:05.416Z,45.00
2018-04-26T06:28:05.889Z,45.29
2018-04-26T06:29:06.362Z,45.58
2018-04-26T06:30:07.196Z,45.88
2018-04-26T06:31:07.368Z,46.20
2018-04-26T06:32:07.861Z,46.51
2018-04-26T06:33:08.252Z,46.84
2018-04-26T06:35:09.199Z,47.45
2018-04-26T06:36:09.667Z,47.68
2018-04-26T06:37:10.137Z,47.87
2018-04-26T06:38:10.615Z,48.04
2018-04-26T06:39:11.080Z,48.16
2018-04-26T06:40:11.549Z,48.31
2018-04-26T06:41:12.021Z,48.35
2018-04-26T06:42:12.546Z,48.39
2018-04-26T06:43:12.962Z,48.39
2018-04-26T06:44:13.432Z,48.38
2018-04-26T06:45:13.902Z,48.37
2018-04-26T06:46:14.422Z,48.29
2018-04-26T06:47:14.841Z,48.19
2018-04-26T06:48:15.310Z,48.08
2018-04-26T06:49:15.785Z,47.96
2018-04-26T06:50:16.256Z,47.84
2018-04-26T06:51:16.727Z,47.75
2018-04-26T06:52:17.194Z,47.62
2018-04-26T06:53:17.664Z,47.50
2018-04-26T06:54:18.135Z,47.39
2018-04-26T06:55:18.609Z,47.30
2018-04-26T06:56:19.073Z,47.17
2018-04-26T06:57:19.544Z,47.00
2018-04-26T06:58:20.018Z,46.92
2018-04-26T06:59:20.487Z,46.82
2018-04-26T07:00:21.014Z,46.73
2018-04-26T07:01:21.427Z,46.64
2018-04-26T07:02:21.898Z,46.53
2018-04-26T07:03:22.375Z,46.41
2018-04-26T07:04:22.838Z,46.31
2018-04-26T07:05:23.311Z,46.20
2018-04-26T07:06:23.781Z,46.10
2018-04-26T07:07:24.255Z,46.01
2018-04-26T07:08:24.722Z,45.95
2018-04-26T07:09:25.194Z,45.86
2018-04-26T07:10:25.666Z,45.77
2018-04-26T07:11:26.137Z,45.71
2018-04-26T07:12:26.608Z,45.67
2018-04-26T07:13:27.079Z,45.61
2018-04-26T07:14:27.551Z,45.54
2018-04-26T07:15:28.022Z,45.40
2018-04-26T07:16:28.504Z,45.27
2018-04-26T07:17:28.976Z,45.13
2018-04-26T07:18:29.438Z,45.02
2018-04-26T07:19:29.910Z,44.93
2018-04-26T07:20:30.382Z,44.90
2018-04-26T07:21:30.853Z,44.85
2018-04-26T07:22:31.326Z,44.78
2018-04-26T07:23:31.797Z,44.75
2018-04-26T07:24:32.269Z,44.69
2018-04-26T07:25:32.744Z,44.66
2018-04-26T07:26:33.215Z,44.59
2018-04-26T07:27:33.690Z,44.57
2018-04-26T07:28:34.161Z,44.53
2018-04-26T07:29:34.633Z,44.50
2018-04-26T07:30:35.105Z,44.51
2018-04-26T07:31:35.579Z,44.50
2018-04-26T07:32:36.051Z,44.45
2018-04-26T07:33:36.526Z,44.42
2018-04-26T07:34:36.998Z,44.41
2018-04-26T07:35:37.478Z,44.38
2018-04-26T07:36:37.945Z,44.33
2018-04-26T07:37:38.417Z,44.32
2018-04-26T07:38:38.894Z,44.30
2018-04-26T07:39:39.365Z,44.24
2018-04-26T07:40:39.839Z,44.15
2018-04-26T07:41:40.311Z,44.09
2018-04-26T07:42:40.784Z,44.05
2018-04-26T07:43:41.258Z,43.98
2018-04-26T07:44:41.777Z,43.95
2018-04-26T07:45:42.206Z,43.91
2018-04-26T07:46:42.730Z,43.88
2018-04-26T07:47:43.153Z,43.80
2018-04-26T07:48:43.627Z,43.74
2018-04-26T07:49:44.446Z,43.68
2018-04-26T07:50:44.578Z,43.71
2018-04-26T07:51:45.102Z,43.70
2018-04-26T07:52:45.523Z,43.69
2018-04-26T07:53:46.001Z,43.68
2018-04-26T07:54:46.473Z,43.65
2018-04-26T07:55:46.947Z,43.62
2018-04-26T07:56:47.419Z,43.64
2018-04-26T07:57:47.895Z,43.60
2018-04-26T07:58:48.369Z,43.59
2018-04-26T07:59:48.842Z,43.59
2018-04-26T08:00:49.315Z,43.60
2018-04-26T08:01:49.871Z,43.62
2018-04-26T08:02:50.265Z,43.65
2018-04-26T08:03:50.740Z,43.63
2018-04-26T08:04:51.217Z,43.63
2018-04-26T08:05:51.690Z,43.58
2018-04-26T08:06:52.164Z,43.54
2018-04-26T08:07:52.639Z,43.54
2018-04-26T08:08:53.113Z,43.55
2018-04-26T08:09:53.587Z,43.59
2018-04-26T08:10:54.063Z,43.68
2018-04-26T08:11:54.543Z,43.80
2018-04-26T08:12:55.014Z,43.93
2018-04-26T08:13:55.487Z,44.12
2018-04-26T08:14:55.960Z,44.30
2018-04-26T08:15:56.439Z,44.50
2018-04-26T08:16:56.910Z,44.69
2018-04-26T08:17:57.382Z,44.92
2018-04-26T08:18:57.862Z,45.19
2018-04-26T08:19:58.333Z,45.47
2018-04-26T08:20:58.803Z,45.76
2018-04-26T08:21:59.279Z,46.06
2018-04-26T08:22:59.752Z,46.36
2018-04-26T08:24:00.231Z,46.69
2018-04-26T08:25:00.778Z,46.99
2018-04-26T08:26:01.168Z,47.31
2018-04-26T08:27:01.690Z,47.63
2018-04-26T08:28:02.113Z,47.95
2018-04-26T08:29:02.583Z,48.20
2018-04-26T08:30:03.061Z,48.42
2018-04-26T08:31:03.527Z,48.62
2018-04-26T08:32:04.083Z,48.76
2018-04-26T08:33:04.468Z,48.85
2018-04-26T08:34:04.938Z,48.92
2018-04-26T08:35:05.408Z,48.94
2018-04-26T08:36:05.881Z,48.95
2018-04-26T08:37:06.402Z,48.90
2018-04-26T08:38:06.821Z,48.83
2018-04-26T08:39:07.304Z,48.74
2018-04-26T08:40:07.762Z,48.63
2018-04-26T08:41:08.235Z,48.53
2018-04-26T08:42:08.704Z,48.41
2018-04-26T08:43:09.174Z,48.28
2018-04-26T08:44:09.648Z,48.12
2018-04-26T08:45:10.115Z,47.98
2018-04-26T08:46:10.590Z,47.81
2018-04-26T08:47:11.215Z,47.66
2018-04-26T08:48:11.528Z,47.50
2018-04-26T08:49:11.997Z,47.38
2018-04-26T08:50:12.467Z,47.23
2018-04-26T08:51:12.940Z,47.10
2018-04-26T08:52:13.492Z,47.00
2018-04-26T08:53:13.885Z,46.90
2018-04-26T08:54:14.354Z,46.74
2018-04-26T08:55:14.827Z,46.60
2018-04-26T08:56:15.297Z,46.49
2018-04-26T08:57:15.769Z,46.42
2018-04-26T08:58:16.237Z,46.32
2018-04-26T08:59:16.712Z,46.23
2018-04-26T09:00:17.183Z,46.12
2018-04-26T09:01:17.653Z,46.03
2018-04-26T09:02:18.125Z,45.96
2018-04-26T09:03:18.600Z,45.84
2018-04-26T09:04:19.070Z,45.71
2018-04-26T09:05:19.545Z,45.65
2018-04-26T09:06:20.016Z,45.58
2018-04-26T09:07:20.488Z,45.51
2018-04-26T09:08:20.966Z,45.42
2018-04-26T09:09:21.433Z,45.39
2018-04-26T09:10:21.908Z,45.28
2018-04-26T09:11:22.377Z,45.23
2018-04-26T09:12:22.903Z,45.14
2018-04-26T09:13:23.325Z,45.06
2018-04-26T09:14:23.798Z,44.99
2018-04-26T09:15:24.271Z,44.91
2018-04-26T09:16:24.745Z,44.88
2018-04-26T09:17:25.216Z,44.82
2018-04-26T09:18:25.691Z,44.76
2018-04-26T09:19:26.166Z,44.70
2018-04-26T09:20:26.640Z,44.65
2018-04-26T09:21:27.112Z,44.60
2018-04-26T09:22:27.636Z,44.54
2018-04-26T09:23:28.062Z,44.48
2018-04-26T09:24:28.535Z,44.44
2018-04-26T09:25:29.006Z,44.42
2018-04-26T09:26:29.482Z,44.39
2018-04-26T09:27:29.956Z,44.36
2018-04-26T09:28:30.432Z,44.30
2018-04-26T09:29:30.905Z,44.27
2018-04-26T09:30:31.380Z,44.27
2018-04-26T09:31:31.858Z,44.22
2018-04-26T09:32:32.331Z,44.16
2018-04-26T09:33:32.802Z,44.12
2018-04-26T09:34:33.279Z,44.09
2018-04-26T09:35:33.758Z,44.05
2018-04-26T09:36:34.229Z,44.07
2018-04-26T09:37:34.703Z,44.07
2018-04-26T09:38:35.250Z,44.13
2018-04-26T09:39:35.658Z,44.17
2018-04-26T09:40:36.128Z,44.26
2018-04-26T09:41:36.603Z,44.40
2018-04-26T09:42:37.128Z,44.55
2018-04-26T09:43:37.553Z,44.75
2018-04-26T09:44:38.085Z,44.91
2018-04-26T09:45:38.506Z,45.07
2018-04-26T09:46:38.975Z,45.23
2018-04-26T09:47:39.449Z,45.45
2018-04-26T09:48:39.933Z,45.68
2018-04-26T09:49:40.403Z,45.90
2018-04-26T09:50:40.870Z,46.11
2018-04-26T09:51:41.344Z,46.39
2018-04-26T09:52:41.819Z,46.63
2018-04-26T09:53:42.492Z,46.91
2018-04-26T09:54:42.761Z,47.17
2018-04-26T09:55:43.236Z,47.46
2018-04-26T09:56:43.709Z,47.77
2018-04-26T09:57:44.332Z,48.05
2018-04-26T09:58:44.650Z,48.34
2018-04-26T09:59:45.127Z,48.58
2018-04-26T10:00:45.595Z,48.79
2018-04-26T10:01:46.126Z,48.93
2018-04-26T10:02:46.594Z,49.07
2018-04-26T10:03:47.016Z,49.17
2018-04-26T10:04:47.482Z,49.24
2018-04-26T10:06:48.423Z,49.28
2018-04-26T10:07:48.895Z,49.26
2018-04-26T10:08:49.430Z,49.19
2018-04-26T10:09:49.837Z,49.12
2018-04-26T10:10:50.306Z,48.97
2018-04-26T10:11:50.780Z,48.82
2018-04-26T10:12:51.248Z,48.66
2018-04-26T10:13:51.719Z,48.50
2018-04-26T10:14:52.191Z,48.39
2018-04-26T10:15:52.661Z,48.25
2018-04-26T10:16:53.163Z,48.08
2018-04-26T10:17:53.755Z,47.92
2018-04-26T10:18:54.076Z,47.74
2018-04-26T10:19:54.546Z,47.56
2018-04-26T10:20:55.017Z,47.42
2018-04-26T10:21:55.487Z,47.25
2018-04-26T10:22:55.961Z,47.09
2018-04-26T10:23:56.433Z,46.95
2018-04-26T10:24:56.907Z,46.81
2018-04-26T10:25:57.375Z,46.68
2018-04-26T10:26:57.850Z,46.53
2018-04-26T10:27:58.452Z,46.37
2018-04-26T10:28:58.792Z,46.22
2018-04-26T10:29:59.268Z,46.12
2018-04-26T10:30:59.738Z,46.07
2018-04-26T10:32:00.211Z,45.97
2018-04-26T10:33:00.690Z,45.86
2018-04-26T10:34:01.158Z,45.75
2018-04-26T10:35:01.638Z,45.63
2018-04-26T10:36:02.103Z,45.56
2018-04-26T10:37:02.581Z,45.44
2018-04-26T10:38:03.051Z,45.37
2018-04-26T10:39:03.727Z,45.30
2018-04-26T10:40:04.004Z,45.21
2018-04-26T10:41:04.473Z,45.09
2018-04-26T10:42:04.945Z,44.98
2018-04-26T10:43:05.418Z,44.99
2018-04-26T10:44:05.895Z,44.90
2018-04-26T10:45:06.370Z,44.83
2018-04-26T10:46:06.843Z,44.79
2018-04-26T10:47:07.318Z,44.71
2018-04-26T10:48:07.845Z,44.65
2018-04-26T10:49:08.267Z,44.59
2018-04-26T10:50:08.741Z,44.50
2018-04-26T10:51:09.218Z,44.40
2018-04-26T10:52:09.690Z,44.35
2018-04-26T10:53:10.167Z,44.31
2018-04-26T10:54:10.639Z,44.32
2018-04-26T10:55:11.119Z,44.36
2018-04-26T10:56:11.591Z,44.42
2018-04-26T10:57:12.067Z,44.51
2018-04-26T10:58:12.541Z,44.72
2018-04-26T10:59:13.016Z,44.79
2018-04-26T11:00:13.499Z,44.94
2018-04-26T11:01:13.967Z,45.08
2018-04-26T11:02:14.442Z,45.27
2018-04-26T11:03:15.072Z,45.48
2018-04-26T11:04:15.390Z,45.71
2018-04-26T11:05:15.865Z,45.97
2018-04-26T11:06:16.338Z,46.25
2018-04-26T11:07:16.823Z,46.53
2018-04-26T11:08:17.341Z,46.80
2018-04-26T11:09:17.842Z,47.03
2018-04-26T11:10:18.233Z,47.25
2018-04-26T11:11:18.757Z,47.46
2018-04-26T11:12:19.181Z,47.69
2018-04-26T11:13:19.654Z,47.90
2018-04-26T11:14:20.128Z,48.13
2018-04-26T11:15:20.601Z,48.39
2018-04-26T11:16:21.074Z,48.64
2018-04-26T11:17:21.546Z,48.88
2018-04-26T11:18:22.017Z,49.11
2018-04-26T11:19:22.492Z,49.31
2018-04-26T11:20:22.960Z,49.47
2018-04-26T11:21:23.437Z,49.57
2018-04-26T11:22:23.902Z,49.63
2018-04-26T11:23:24.423Z,49.65
2018-04-26T11:24:24.920Z,49.64
2018-04-26T11:25:25.317Z,49.59
2018-04-26T11:26:25.787Z,49.51
2018-04-26T11:27:26.260Z,49.41
2018-04-26T11:28:26.733Z,49.32
2018-04-26T11:29:27.204Z,49.21
2018-04-26T11:30:27.673Z,49.07
2018-04-26T11:31:28.144Z,48.89
2018-04-26T11:32:28.620Z,48.71
2018-04-26T11:33:29.089Z,48.53
2018-04-26T11:34:29.559Z,48.34
2018-04-26T11:35:30.031Z,48.17
2018-04-26T11:36:30.504Z,47.96
2018-04-26T11:37:30.974Z,47.79
2018-04-26T11:38:31.446Z,47.60
2018-04-26T11:39:31.917Z,47.45
2018-04-26T11:40:32.390Z,47.26
2018-04-26T11:41:32.863Z,47.18
2018-04-26T11:42:33.334Z,47.04
2018-04-26T11:43:33.808Z,46.95
2018-04-26T11:44:34.281Z,46.81
2018-04-26T11:45:34.754Z,46.70
2018-04-26T11:46:35.268Z,46.57
2018-04-26T11:47:35.699Z,46.45
2018-04-26T11:48:36.171Z,46.34
2018-04-26T11:49:36.645Z,46.28
2018-04-26T11:50:37.117Z,46.21
2018-04-26T11:51:37.590Z,46.07
2018-04-26T11:52:38.073Z,45.94
2018-04-26T11:53:38.541Z,45.85
2018-04-26T11:54:39.049Z,45.71
2018-04-26T11:55:39.488Z,45.64
2018-04-26T11:56:39.965Z,45.52
2018-04-26T11:57:40.436Z,45.41
2018-04-26T11:58:40.910Z,45.35
2018-04-26T11:59:41.387Z,45.30
2018-04-26T12:00:42.062Z,45.25
2018-04-26T12:01:42.337Z,45.17
2018-04-26T12:02:42.890Z,45.06
2018-04-26T12:03:43.285Z,45.00
2018-04-26T12:04:43.759Z,44.94
2018-04-26T12:05:44.235Z,44.91
2018-04-26T12:06:44.709Z,44.91
2018-04-26T12:07:45.247Z,44.95
2018-04-26T12:08:45.658Z,45.02
2018-04-26T12:09:46.135Z,45.11
2018-04-26T12:10:46.610Z,45.21
2018-04-26T12:11:47.089Z,45.34
2018-04-26T12:12:47.561Z,45.47
2018-04-26T12:13:48.036Z,45.63
2018-04-26T12:14:48.513Z,45.81
2018-04-26T12:15:48.986Z,46.02
2018-04-26T12:16:49.459Z,46.26
2018-04-26T12:17:49.934Z,46.46
2018-04-26T12:18:50.764Z,46.66
2018-04-26T12:19:50.883Z,46.90
2018-04-26T12:20:51.358Z,47.16
2018-04-26T12:21:51.832Z,47.39
2018-04-26T12:22:52.305Z,47.65
2018-04-26T12:23:52.779Z,47.92
2018-04-26T12:24:53.252Z,48.16
2018-04-26T12:25:53.726Z,48.38
2018-04-26T12:26:54.197Z,48.59
2018-04-26T12:27:54.671Z,48.81
2018-04-26T12:28:55.145Z,49.05
2018-04-26T12:29:55.619Z,49.33
2018-04-26T12:30:56.089Z,49.59
2018-04-26T12:31:56.565Z,49.81
2018-04-26T12:32:57.033Z,50.02
2018-04-26T12:33:57.505Z,50.22
2018-04-26T12:34:57.976Z,50.44
2018-04-26T12:35:58.446Z,50.66
2018-04-26T12:36:58.921Z,50.82
2018-04-26T12:37:59.392Z,50.89
2018-04-26T12:38:59.913Z,50.85
2018-04-26T12:40:00.334Z,50.80
2018-04-26T12:41:00.806Z,50.74
2018-04-26T12:42:01.310Z,50.64
2018-04-26T12:43:01.746Z,50.56
2018-04-26T12:44:02.221Z,50.41
2018-04-26T12:45:02.691Z,50.25
2018-04-26T12:46:03.167Z,50.04
2018-04-26T12:47:03.633Z,49.83
2018-04-26T12:48:04.316Z,49.63
2018-04-26T12:49:04.577Z,49.37
2018-04-26T12:50:05.051Z,49.14
2018-04-26T12:51:05.520Z,48.92
2018-04-26T12:52:05.994Z,48.71
2018-04-26T12:53:06.467Z,48.49
2018-04-26T12:54:06.993Z,48.38
2018-04-26T12:55:07.412Z,48.27
2018-04-26T12:56:07.888Z,48.25
2018-04-26T12:57:08.355Z,48.18
2018-04-26T12:58:08.919Z,48.02
2018-04-26T12:59:09.300Z,47.90
2018-04-26T13:00:09.778Z,47.76
2018-04-26T13:01:10.250Z,47.58
2018-04-26T13:02:10.796Z,47.36
2018-04-26T13:03:11.193Z,47.19
2018-04-26T13:04:11.670Z,47.08
2018-04-26T13:05:12.143Z,47.03
2018-04-26T13:06:12.643Z,46.92
2018-04-26T13:07:13.091Z,46.84
2018-04-26T13:08:13.770Z,46.75
2018-04-26T13:09:14.039Z,46.69
2018-04-26T13:10:14.520Z,46.62
2018-04-26T13:11:14.990Z,46.57
2018-04-26T13:12:15.463Z,46.50
2018-04-26T13:14:16.420Z,46.45
2018-04-26T13:15:16.892Z,46.44
2018-04-26T13:16:17.365Z,46.39
2018-04-26T13:17:17.906Z,46.39
2018-04-26T13:18:18.317Z,46.43
2018-04-26T13:19:18.791Z,46.58
2018-04-26T13:20:19.267Z,46.73
2018-04-26T13:21:19.843Z,46.90
2018-04-26T13:22:20.221Z,47.06
2018-04-26T13:23:20.708Z,47.22
2018-04-26T13:24:21.216Z,47.39
2018-04-26T13:25:21.643Z,47.54
2018-04-26T13:26:22.116Z,47.71
2018-04-26T13:27:22.677Z,47.82
2018-04-26T13:28:23.065Z,48.03
2018-04-26T13:29:23.543Z,48.21
2018-04-26T13:30:24.016Z,48.42
2018-04-26T13:31:24.488Z,48.63
2018-04-26T13:32:24.964Z,48.82
2018-04-26T13:33:25.442Z,48.99
2018-04-26T13:34:26.062Z,49.18
2018-04-26T13:35:26.383Z,49.37
2018-04-26T13:36:26.912Z,49.59
2018-04-26T13:37:27.332Z,49.79
2018-04-26T13:38:27.805Z,49.99
2018-04-26T13:39:28.278Z,50.17
2018-04-26T13:40:28.768Z,50.35
2018-04-26T13:41:29.222Z,50.57
2018-04-26T13:42:29.696Z,50.75
2018-04-26T13:43:30.165Z,50.98
2018-04-26T13:44:30.792Z,51.21
2018-04-26T13:45:31.109Z,51.36
2018-04-26T13:46:31.582Z,51.46
2018-04-26T13:47:32.054Z,51.50
2018-04-26T13:48:32.527Z,51.49
2018-04-26T13:49:32.998Z,51.46
2018-04-26T13:50:33.472Z,51.41
2018-04-26T13:51:33.940Z,51.29
2018-04-26T13:52:34.411Z,51.15
2018-04-26T13:53:34.884Z,50.98
2018-04-26T13:54:35.357Z,50.78
2018-04-26T13:55:35.825Z,50.54
2018-04-26T13:56:36.301Z,50.28
2018-04-26T13:57:36.769Z,50.03
2018-04-26T13:58:37.243Z,49.80